Time;durP1;ratioP1;P1;durP2;ratioP2;P2;SDS_P1;SDS_P2;PMS_P1;PMS_P2;Temp;Humidity;BMP_temperature;BMP_pressure;BME280_temperature;BME280_humidity;BME280_pressure;Samples;Min_cycle;Max_cycle;Signal;HPM_P1;HPM_P2
2022/05/11 13:56:09;;;;;;;;;13.00;13.00;;;;;22.63;54.30;101744.75;5118376;27;45419;-91
2022/05/11 13:58:38;;;;;;;;;13.80;12.20;;;;;22.72;53.62;101724.03;5112461;27;45398;-90
2022/05/11 14:01:09;;;;;;;;;13.60;13.60;;;;;22.82;53.73;101719.38;5087327;27;45502;-90
2022/05/11 14:03:51;;;;;;;;;15.20;13.20;;;;;22.69;53.29;101662.16;5075638;27;45525;-88
2022/05/11 14:06:18;;;;;;;;;13.20;10.40;;;;;22.65;52.68;101620.19;5091133;27;46708;-90
2022/05/11 14:08:44;;;;;;;;;12.60;11.40;;;;;22.78;52.06;101628.72;5086463;27;45623;-91
2022/05/11 14:11:09;;;;;;;;;13.50;11.25;;;;;22.92;52.06;101623.72;5069307;27;45546;-91
2022/05/11 14:13:35;;;;;;;;;10.50;10.50;;;;;23.42;51.69;101698.78;5091966;27;45525;-91
2022/05/11 14:16:01;;;;;;;;;9.25;9.25;;;;;23.15;51.23;101633.94;5089073;27;45540;-91
2022/05/11 14:18:28;;;;;;;;;10.80;8.80;;;;;23.57;51.13;101682.75;5083921;27;45948;-94
2022/05/11 14:20:53;;;;;;;;;13.20;11.20;;;;;23.61;51.18;101686.81;5107013;27;45501;-91
2022/05/11 14:23:19;;;;;;;;;15.50;10.75;;;;;23.55;50.79;101649.59;5083326;27;45639;-91
2022/05/11 14:25:44;;;;;;;;;10.00;10.00;;;;;23.54;50.52;101632.50;5083199;27;50695;-91
2022/05/11 14:28:10;;;;;;;;;10.00;10.00;;;;;23.75;50.19;101649.25;5085655;27;45492;-91
2022/05/11 14:30:39;;;;;;;;;9.25;9.25;;;;;23.87;50.04;101655.16;5071391;27;45928;-93
2022/05/11 14:33:12;;;;;;;;;12.40;12.40;;;;;23.92;50.12;101656.34;5073873;27;45669;-93
2022/05/11 14:35:42;;;;;;;;;13.20;12.40;;;;;23.97;49.69;101653.16;5092201;27;47866;-96
2022/05/11 14:38:20;;;;;;;;;12.60;12.60;;;;;23.72;50.07;101605.22;5077502;27;45453;-93
2022/05/11 14:41:12;;;;;;;;;11.40;11.40;;;;;23.91;49.92;101638.41;5073128;27;45501;-94
2022/05/11 14:44:21;;;;;;;;;;;;;;;;;;;;;
2022/05/11 14:47:24;;;;;;;;;13.40;11.60;;;;;24.19;49.53;101661.56;5096695;27;75266;-94
2022/05/11 14:50:01;;;;;;;;;10.60;10.40;;;;;24.36;49.45;101673.25;5107089;27;45938;-94
2022/05/11 14:52:39;;;;;;;;;14.80;12.60;;;;;24.81;49.72;101732.47;5091761;27;45482;-95
2022/05/11 14:55:06;;;;;;;;;10.80;10.60;;;;;24.70;49.07;101706.56;5075068;27;45406;-95
2022/05/11 15:03:33;;;;;;;;;11.60;10.80;;;;;24.09;49.35;101618.41;5092449;27;45278;-95
2022/05/11 15:05:59;;;;;;;;;13.40;12.80;;;;;24.57;48.85;101684.56;5086445;27;45550;-93
2022/05/11 15:08:41;;;;;;;;;11.25;11.25;;;;;24.54;49.06;101655.94;5077877;27;48096;-94
2022/05/11 15:13:56;;;;;;;;;9.60;8.80;;;;;24.58;48.96;101668.09;5097408;27;45370;-95
2022/05/11 15:16:22;;;;;;;;;12.00;11.20;;;;;24.46;48.85;101655.97;5077313;27;45616;-93
2022/05/11 15:18:54;;;;;;;;;11.25;10.75;;;;;24.60;48.69;101682.38;5070594;27;46647;-93
2022/05/11 15:21:35;;;;;;;;;9.40;7.60;;;;;24.54;48.55;101669.50;5064038;27;45599;-94
2022/05/11 15:24:01;;;;;;;;;14.40;12.20;;;;;24.80;48.73;101698.22;5079954;27;45509;-93
2022/05/11 15:26:26;;;;;;;;;10.50;9.75;;;;;24.85;48.74;101697.69;5055485;27;46511;-93
2022/05/11 15:39:49;;;;;;;;;11.60;11.60;;;;;24.65;48.45;101657.41;4960003;28;45405;-96
2022/05/11 15:58:01;;;;;;;;;;;;;;;;;;;;;
2022/05/11 16:00:44;;;;;;;;;10.80;10.80;;;;;25.06;48.09;101703.59;5023912;28;68793;-94
2022/05/11 16:12:29;;;;;;;;;8.00;7.20;;;;;25.25;47.53;101724.84;5013099;28;45353;-92
2022/05/11 16:14:55;;;;;;;;;10.75;9.75;;;;;25.51;47.02;101760.03;5014468;28;47351;-92
2022/05/11 16:20:05;;;;;;;;;11.00;10.20;;;;;24.98;47.40;101680.88;5015284;28;45495;-92
2022/05/11 16:22:30;;;;;;;;;12.75;10.75;;;;;25.65;47.22;101778.28;4998919;28;45463;-92
2022/05/11 16:25:08;;;;;;;;;11.75;9.25;;;;;25.21;47.16;101706.41;4983652;28;45426;-92
2022/05/11 16:27:33;;;;;;;;;10.40;9.00;;;;;25.43;47.35;101752.78;4997426;28;47199;-92
2022/05/11 16:29:59;;;;;;;;;11.00;10.00;;;;;25.30;47.17;101742.50;5000341;28;46547;-92
2022/05/11 16:32:38;;;;;;;;;8.00;8.00;;;;;25.48;47.34;101774.81;4995352;28;45386;-92
2022/05/11 16:38:38;;;;;;;;;10.40;9.40;;;;;25.06;46.68;101703.59;4956742;28;46824;-91
2022/05/11 16:41:46;;;;;;;;;;;;;;;;;;;;;
2022/05/11 16:44:24;;;;;;;;;;;;;;;;;;;;;
2022/05/11 16:58:07;;;;;;;;;;;;;;;;;;;;;
2022/05/11 17:00:33;;;;;;;;;8.00;8.00;;;;;25.28;45.67;101739.09;4862180;29;68771;-92
2022/05/11 17:03:04;;;;;;;;;12.00;11.00;;;;;25.54;45.17;101786.81;4880855;29;47204;-91
2022/05/11 17:05:30;;;;;;;;;9.80;9.80;;;;;25.73;45.35;101817.31;4847284;29;45879;-89
2022/05/11 17:07:55;;;;;;;;;14.50;11.00;;;;;25.57;44.69;101792.75;4858849;29;45853;-90
2022/05/11 17:10:20;;;;;;;;;8.25;8.25;;;;;25.57;45.00;101792.75;4846887;29;45605;-90
2022/05/11 17:12:46;;;;;;;;;12.25;11.25;;;;;25.03;44.83;101710.22;4865517;29;45418;-89
2022/05/11 17:15:12;;;;;;;;;11.75;9.25;;;;;25.44;44.69;101782.47;4894901;28;45514;-89
2022/05/11 17:17:37;;;;;;;;;10.75;10.75;;;;;25.28;44.90;101745.38;4901551;28;45499;-89
2022/05/11 17:20:03;;;;;;;;;11.75;9.75;;;;;25.08;44.67;101725.97;4929632;28;45557;-90
2022/05/11 17:22:29;;;;;;;;;10.75;9.00;;;;;25.55;45.04;101804.81;4933460;28;46235;-90
2022/05/11 17:24:54;;;;;;;;;9.00;8.00;;;;;24.86;45.24;101693.13;4920431;28;45493;-90
2022/05/11 17:27:19;;;;;;;;;11.00;9.50;;;;;25.10;44.99;101724.75;4921821;28;45674;-90
2022/05/11 17:29:45;;;;;;;;;10.00;9.75;;;;;24.93;45.11;101699.53;4908908;28;45541;-90
2022/05/11 17:32:10;;;;;;;;;8.50;8.50;;;;;25.21;45.13;101760.69;4988379;28;46916;-90
2022/05/11 17:34:36;;;;;;;;;9.75;9.75;;;;;25.65;45.27;101837.19;5013132;28;45527;-91
2022/05/11 17:37:02;;;;;;;;;10.00;9.50;;;;;25.30;45.33;101791.38;5000054;28;45478;-90
2022/05/11 17:39:27;;;;;;;;;8.25;7.25;;;;;25.40;45.08;101797.44;5018191;28;45412;-90
2022/05/11 17:41:53;;;;;;;;;9.00;9.00;;;;;24.91;44.73;101734.13;4998444;28;47244;-90
2022/05/11 17:44:18;;;;;;;;;8.50;8.50;;;;;24.93;45.11;101748.38;5013920;28;45436;-89
2022/05/11 17:46:44;;;;;;;;;9.00;8.00;;;;;25.62;45.50;101843.81;5011249;28;45412;-91
2022/05/11 17:49:09;;;;;;;;;8.00;8.00;;;;;25.18;44.87;101770.03;5013885;28;45494;-90
2022/05/11 17:51:35;;;;;;;;;9.50;9.50;;;;;24.99;44.65;101744.97;5016528;28;47953;-91
2022/05/11 17:54:00;;;;;;;;;9.50;9.50;;;;;25.16;44.93;101769.34;4999396;28;45582;-90
2022/05/11 17:56:26;;;;;;;;;11.75;11.00;;;;;25.10;45.08;101767.38;5004773;28;45915;-91
2022/05/11 17:58:51;;;;;;;;;10.00;9.00;;;;;25.47;44.98;101836.41;5001228;28;45573;-91
2022/05/11 18:01:18;;;;;;;;;9.50;9.50;;;;;25.14;45.23;101787.69;5014902;28;53727;-91
2022/05/11 18:03:43;;;;;;;;;9.20;9.00;;;;;25.35;44.98;101827.84;5017292;28;45397;-91
2022/05/11 18:06:09;;;;;;;;;8.00;7.75;;;;;25.24;45.10;101809.22;5009705;28;45570;-90
2022/05/11 18:08:37;;;;;;;;;8.50;8.25;;;;;25.10;44.93;101789.09;5000263;28;45413;-92
2022/05/11 18:11:03;;;;;;;;;11.00;8.60;;;;;24.92;45.07;101779.25;4989007;28;47130;-91
2022/05/11 18:13:28;;;;;;;;;9.00;9.00;;;;;25.11;45.26;101826.03;4999131;28;45487;-91
2022/05/11 18:15:54;;;;;;;;;8.25;8.00;;;;;25.44;45.14;101874.81;5016315;28;45518;-91
2022/05/11 18:18:19;;;;;;;;;8.25;8.25;;;;;24.99;44.86;101823.66;5031762;28;45447;-91
2022/05/11 18:20:46;;;;;;;;;8.75;8.50;;;;;24.96;44.78;101817.75;4995124;28;46990;-91
2022/05/11 18:23:11;;;;;;;;;9.40;8.00;;;;;25.34;44.50;101876.88;5030524;28;45439;-90
2022/05/11 18:25:37;;;;;;;;;9.50;8.25;;;;;24.66;44.54;101769.50;4995088;28;45487;-91
2022/05/11 18:28:06;;;;;;;;;8.25;7.25;;;;;25.15;44.58;101859.97;5016073;28;45505;-91
2022/05/11 18:30:33;;;;;;;;;9.60;8.00;;;;;24.94;44.43;101831.50;5028435;28;45346;-90
2022/05/11 18:32:58;;;;;;;;;9.60;8.40;;;;;24.84;44.64;101806.41;4993844;28;45432;-91
2022/05/11 18:35:24;;;;;;;;;7.25;7.25;;;;;24.91;44.89;101831.84;5015143;28;45470;-90
2022/05/11 18:37:50;;;;;;;;;7.00;6.50;;;;;25.04;44.54;101856.59;5012005;28;45519;-92
2022/05/11 18:40:19;;;;;;;;;8.75;8.75;;;;;24.67;44.70;101817.31;5014089;28;45605;-91
2022/05/11 18:42:45;;;;;;;;;7.40;7.40;;;;;25.10;45.01;101887.63;5015204;28;45329;-90
2022/05/11 18:45:10;;;;;;;;;7.75;7.75;;;;;24.85;45.33;101854.22;5000967;28;45725;-90
2022/05/11 18:47:36;;;;;;;;;7.00;7.00;;;;;24.74;45.09;101831.88;5032375;28;45827;-91
2022/05/11 18:50:03;;;;;;;;;6.75;6.75;;;;;24.40;44.56;101792.22;5014960;28;48036;-91
2022/05/11 18:52:28;;;;;;;;;9.80;7.20;;;;;24.77;44.89;101864.09;5014275;28;45456;-92
2022/05/11 18:54:54;;;;;;;;;7.50;6.00;;;;;24.46;45.03;101829.50;4999684;28;45856;-90
2022/05/11 18:57:20;;;;;;;;;7.00;6.00;;;;;24.75;45.21;101886.97;5001086;28;45487;-89
2022/05/11 18:59:46;;;;;;;;;5.40;5.40;;;;;24.62;44.76;101860.34;5004258;28;46246;-90
2022/05/11 19:02:12;;;;;;;;;8.40;6.20;;;;;24.66;45.18;101883.41;5002549;28;45379;-92
2022/05/11 19:04:37;;;;;;;;;7.75;5.75;;;;;24.65;44.67;101873.56;4997245;28;45472;-91
2022/05/11 19:07:03;;;;;;;;;7.00;6.00;;;;;24.71;44.83;101891.88;5013029;28;45515;-91
2022/05/11 19:09:29;;;;;;;;;7.75;6.00;;;;;24.55;44.91;101877.31;5003097;28;46947;-92
2022/05/11 19:11:54;;;;;;;;;6.50;6.00;;;;;24.29;45.02;101840.38;5004838;28;45481;-92
2022/05/11 19:14:21;;;;;;;;;6.50;5.50;;;;;24.78;44.83;101933.63;5019738;28;45450;-92
2022/05/11 19:16:51;;;;;;;;;6.80;5.40;;;;;24.28;45.07;101852.22;4997112;28;45519;-91
2022/05/11 19:19:19;;;;;;;;;6.20;5.00;;;;;24.40;45.03;101879.00;5020092;28;46817;-91
2022/05/11 19:21:45;;;;;;;;;5.00;4.80;;;;;24.04;45.25;101843.00;5019941;28;45465;-91
2022/05/11 19:24:10;;;;;;;;;8.00;5.50;;;;;24.80;44.99;101966.00;5019195;28;45673;-92
2022/05/11 19:26:36;;;;;;;;;6.00;6.00;;;;;24.18;45.39;101871.34;4999720;28;45519;-90
2022/05/11 19:29:02;;;;;;;;;4.00;4.00;;;;;24.15;44.92;101883.31;5021172;28;47255;-90
2022/05/11 19:31:28;;;;;;;;;3.60;3.60;;;;;23.96;44.85;101861.94;5016585;28;45596;-90
2022/05/11 19:33:54;;;;;;;;;4.00;4.00;;;;;24.09;45.07;101891.28;4998862;28;45478;-90
2022/05/11 19:36:19;;;;;;;;;4.25;4.25;;;;;24.15;45.29;101910.44;5018270;28;45581;-90
2022/05/11 19:38:47;;;;;;;;;4.75;4.75;;;;;23.88;45.39;101879.88;5017337;28;45585;-91
2022/05/11 19:41:16;;;;;;;;;5.00;5.00;;;;;24.44;45.06;101986.13;5011309;28;45405;-91
2022/05/11 19:43:42;;;;;;;;;4.00;4.00;;;;;23.99;45.15;101916.66;5013838;28;52344;-91
2022/05/11 19:46:08;;;;;;;;;4.20;4.00;;;;;24.18;45.12;101957.22;5016567;28;45346;-91
2022/05/11 19:48:33;;;;;;;;;2.25;2.25;;;;;23.66;45.46;101879.47;5015378;28;46125;-89
2022/05/11 19:50:58;;;;;;;;;5.75;4.75;;;;;23.88;45.55;101931.38;5017172;28;45442;-89
2022/05/11 19:53:24;;;;;;;;;2.25;2.25;;;;;23.82;45.04;101938.28;5034768;28;45558;-90
2022/05/11 19:55:50;;;;;;;;;4.75;4.50;;;;;23.90;45.43;101964.56;5028752;28;45444;-91
2022/05/11 19:58:18;;;;;;;;;5.00;5.00;;;;;23.59;45.44;101921.75;5025867;27;47153;-91
2022/05/11 20:00:44;;;;;;;;;3.20;3.20;;;;;23.62;45.52;101937.69;5046595;28;45273;-91
2022/05/11 20:03:09;;;;;;;;;3.25;3.25;;;;;23.47;45.51;101924.72;5030716;28;45538;-91
2022/05/11 20:05:35;;;;;;;;;3.25;3.25;;;;;24.03;45.76;102009.34;5016588;28;45503;-91
2022/05/11 20:08:04;;;;;;;;;8.00;4.80;;;;;23.43;45.74;101931.47;5016867;28;46343;-91
2022/05/11 20:10:32;;;;;;;;;2.80;2.80;;;;;23.70;45.85;101989.19;5017470;28;45590;-91
2022/05/11 20:12:59;;;;;;;;;3.00;3.00;;;;;23.39;45.45;101949.88;5016523;28;45384;-91
2022/05/11 20:15:25;;;;;;;;;4.60;4.00;;;;;23.42;45.43;101967.66;5032715;28;45428;-90
2022/05/11 20:17:50;;;;;;;;;3.00;3.00;;;;;24.03;45.65;102075.25;4998359;28;46796;-91
2022/05/11 20:20:16;;;;;;;;;5.00;3.75;;;;;23.50;45.36;102000.22;5014973;28;45518;-91
2022/05/11 20:22:43;;;;;;;;;3.75;3.00;;;;;23.29;45.52;101981.63;5017227;28;45330;-90
2022/05/11 20:25:09;;;;;;;;;3.00;3.00;;;;;23.41;45.24;102013.88;4998859;28;45862;-91
2022/05/11 20:27:35;;;;;;;;;6.00;4.20;;;;;23.57;45.90;102048.38;5011048;28;47774;-91
2022/05/11 20:30:04;;;;;;;;;3.40;3.40;;;;;23.71;45.75;102068.59;5010886;28;45506;-91
2022/05/11 20:35:13;;;;;;;;;4.00;4.00;;;;;23.79;45.67;102101.16;5017011;28;49932;-91
2022/05/11 20:37:41;;;;;;;;;3.25;3.25;;;;;23.34;45.75;102032.59;5014347;28;45354;-91
2022/05/11 20:40:09;;;;;;;;;2.80;2.80;;;;;23.13;45.91;102004.00;5016187;28;50419;-92
2022/05/11 20:42:36;;;;;;;;;3.00;3.00;;;;;23.25;45.71;102032.53;5013230;28;45458;-90
2022/05/11 20:45:06;;;;;;;;;2.00;2.00;;;;;23.65;45.87;102126.09;5016061;28;45580;-90
2022/05/11 20:47:41;;;;;;;;;4.00;3.80;;;;;23.35;45.84;102083.03;4995331;28;47327;-90
2022/05/11 20:50:07;;;;;;;;;2.60;2.60;;;;;22.91;45.97;102007.03;5010396;28;45486;-90
2022/05/11 20:52:33;;;;;;;;;3.00;3.00;;;;;23.28;45.79;102078.25;5015873;28;45505;-92
2022/05/11 20:55:12;;;;;;;;;3.75;3.75;;;;;22.80;45.64;102010.84;5016931;28;45593;-91
2022/05/11 20:57:37;;;;;;;;;2.80;2.80;;;;;23.12;45.70;102067.25;5018243;28;45731;-92
2022/05/11 21:00:07;;;;;;;;;2.00;2.00;;;;;23.38;46.13;102115.19;5001252;28;45452;-92
2022/05/11 21:02:33;;;;;;;;;2.00;2.00;;;;;23.33;46.26;102112.94;5002597;28;45527;-92
2022/05/11 21:04:59;;;;;;;;;2.25;2.25;;;;;22.79;46.12;102024.50;5001524;28;45461;-93
2022/05/11 21:07:27;;;;;;;;;2.50;2.25;;;;;22.65;46.09;102025.84;5016251;28;47099;-93
2022/05/11 21:09:53;;;;;;;;;3.00;3.00;;;;;22.84;45.91;102060.91;4983836;28;45492;-93
2022/05/11 21:12:19;;;;;;;;;2.20;2.00;;;;;22.82;46.51;102059.34;5000395;28;45469;-92
2022/05/11 21:14:47;;;;;;;;;5.00;3.00;;;;;22.79;46.37;102063.22;5000427;28;45288;-92
2022/05/11 21:17:13;;;;;;;;;2.80;2.80;;;;;22.88;46.25;102087.66;4994401;28;47209;-92
2022/05/11 21:19:38;;;;;;;;;3.00;3.00;;;;;23.24;46.78;102144.50;5019179;28;45381;-93
2022/05/11 21:22:11;;;;;;;;;2.00;2.00;;;;;22.71;46.65;102079.34;5003146;28;45533;-91
2022/05/11 21:24:40;;;;;;;;;3.80;2.40;;;;;22.78;46.41;102093.97;5026495;28;45379;-93
2022/05/11 21:27:05;;;;;;;;;2.00;2.00;;;;;22.58;46.53;102064.31;5006352;28;47263;-92
2022/05/11 21:29:31;;;;;;;;;3.00;3.00;;;;;22.46;46.33;102052.00;4997366;28;45612;-93
2022/05/11 21:31:57;;;;;;;;;2.75;2.75;;;;;22.73;46.80;102097.13;5009111;28;45715;-93
2022/05/11 21:34:23;;;;;;;;;3.20;3.20;;;;;22.58;46.81;102088.63;4989535;28;45525;-91
2022/05/11 21:36:49;;;;;;;;;2.00;2.00;;;;;22.62;46.84;102090.06;5026444;28;46714;-91
2022/05/11 21:39:14;;;;;;;;;5.00;2.00;;;;;22.57;46.69;102091.50;5033571;28;45491;-91
2022/05/11 21:41:40;;;;;;;;;3.25;3.00;;;;;22.41;46.99;102066.81;5024189;28;45470;-92
2022/05/11 21:44:31;;;;;;;;;2.00;2.00;;;;;23.01;46.58;102182.84;5015513;28;45616;-94
2022/05/11 21:46:57;;;;;;;;;2.80;2.60;;;;;22.14;46.93;102038.78;5016681;28;47429;-92
2022/05/11 21:49:30;;;;;;;;;2.00;2.00;;;;;22.49;46.62;102111.19;5007410;28;45603;-93
2022/05/11 21:51:59;;;;;;;;;1.20;1.20;;;;;22.94;46.40;102169.06;5020568;28;44935;-92
2022/05/11 21:54:27;;;;;;;;;3.00;3.00;;;;;22.40;46.55;102084.03;5037892;28;44848;-92
2022/05/11 21:56:53;;;;;;;;;2.20;2.20;;;;;22.22;46.76;102066.91;5035258;28;46716;-90
2022/05/11 21:59:18;;;;;;;;;3.00;3.00;;;;;22.11;46.91;102052.59;5044019;27;44801;-93
2022/05/11 22:01:47;;;;;;;;;2.50;2.50;;;;;22.45;47.00;102113.34;5015435;28;45293;-93
2022/05/11 22:04:22;;;;;;;;;3.00;3.00;;;;;22.10;46.63;102058.13;5003144;28;45472;-93
2022/05/11 22:06:49;;;;;;;;;1.60;0.80;;;;;22.04;46.83;102043.34;5037406;28;45721;-91
2022/05/11 22:09:17;;;;;;;;;2.00;2.00;;;;;21.90;46.99;102028.47;4997946;28;45607;-91
2022/05/11 22:11:43;;;;;;;;;2.00;2.00;;;;;22.31;46.77;102095.75;5017381;28;47079;-92
2022/05/11 22:14:09;;;;;;;;;4.00;2.00;;;;;22.42;46.94;102119.03;5015537;28;45760;-94
2022/05/11 22:16:34;;;;;;;;;2.20;2.20;;;;;21.93;47.02;102047.09;4998012;28;47320;-92
2022/05/11 22:19:02;;;;;;;;;2.75;2.00;;;;;22.20;47.46;102083.28;4998084;28;46036;-91
2022/05/11 22:21:28;;;;;;;;;3.00;3.00;;;;;22.66;47.21;102162.78;5018470;28;45578;-91
2022/05/11 22:23:53;;;;;;;;;4.25;3.00;;;;;21.86;47.29;102044.09;5002891;28;45463;-90
2022/05/11 22:26:19;;;;;;;;;3.75;2.00;;;;;21.95;47.06;102053.19;5006775;28;47994;-90
2022/05/11 22:28:44;;;;;;;;;2.00;2.00;;;;;22.38;46.95;102123.88;4997719;28;46041;-91
2022/05/11 22:31:12;;;;;;;;;2.00;2.00;;;;;21.88;47.23;102044.81;5003556;28;45987;-90
2022/05/11 22:33:37;;;;;;;;;4.00;2.00;;;;;22.04;46.98;102064.97;5006936;28;46019;-90
2022/05/11 22:36:03;;;;;;;;;1.75;1.75;;;;;22.09;47.32;102078.88;4998323;28;47926;-89
2022/05/11 22:38:31;;;;;;;;;2.00;2.00;;;;;22.05;47.52;102062.16;5008312;28;45971;-90
2022/05/11 22:40:57;;;;;;;;;1.60;1.60;;;;;21.91;47.07;102038.31;5013577;28;45551;-92
2022/05/11 22:43:24;;;;;;;;;1.80;1.80;;;;;21.94;47.41;102038.88;4990019;28;45625;-91
2022/05/11 22:45:49;;;;;;;;;2.00;2.00;;;;;22.04;47.44;102049.63;4992312;28;49001;-91
2022/05/11 22:48:15;;;;;;;;;3.75;3.00;;;;;22.00;47.55;102045.53;4991844;28;48155;-91
2022/05/11 22:50:41;;;;;;;;;3.00;2.00;;;;;22.01;47.54;102066.13;5004301;28;47267;-91
2022/05/11 22:53:07;;;;;;;;;3.20;2.40;;;;;22.49;47.56;102154.47;4985164;28;46285;-91
2022/05/11 22:55:32;;;;;;;;;3.00;3.00;;;;;21.75;47.45;102039.72;4999856;28;47877;-88
2022/05/11 22:58:03;;;;;;;;;2.00;2.00;;;;;21.96;47.59;102069.28;4991220;28;47071;-91
2022/05/11 23:00:32;;;;;;;;;3.00;2.00;;;;;22.42;47.45;102159.59;4991661;28;47383;-92
2022/05/11 23:02:57;;;;;;;;;3.20;2.00;;;;;21.90;47.27;102080.66;5007650;28;45579;-91
2022/05/11 23:05:23;;;;;;;;;1.00;1.00;;;;;21.66;47.39;102041.44;4994960;28;48492;-91
2022/05/11 23:07:49;;;;;;;;;1.00;1.00;;;;;21.78;47.21;102065.59;5001999;28;46129;-92
2022/05/11 23:10:16;;;;;;;;;2.00;2.00;;;;;21.90;47.44;102080.66;4990734;28;47185;-92
2022/05/11 23:12:42;;;;;;;;;2.40;2.00;;;;;21.88;47.62;102088.03;5004387;28;46855;-92
2022/05/11 23:15:09;;;;;;;;;2.50;2.00;;;;;21.56;47.54;102062.22;4994353;28;48107;-91
2022/05/11 23:17:35;;;;;;;;;1.60;1.60;;;;;22.19;47.70;102168.06;4992087;28;47337;-92
2022/05/11 23:20:01;;;;;;;;;2.00;2.00;;;;;21.84;47.70;102119.03;5007697;28;45654;-92
2022/05/11 23:22:26;;;;;;;;;3.25;3.00;;;;;21.77;47.47;102116.06;4992348;28;47186;-92
2022/05/11 23:24:52;;;;;;;;;2.00;2.00;;;;;21.46;47.79;102068.47;4989076;28;47005;-92
2022/05/11 23:27:18;;;;;;;;;1.50;1.50;;;;;21.84;48.04;102135.22;4986818;28;45884;-92
2022/05/11 23:29:44;;;;;;;;;2.60;1.80;;;;;21.69;48.17;102126.72;4990091;28;46133;-92
2022/05/11 23:32:09;;;;;;;;;1.50;1.50;;;;;21.62;48.10;102115.66;5004548;28;45473;-91
2022/05/11 23:34:35;;;;;;;;;3.50;2.50;;;;;21.79;48.10;102137.53;4992771;28;48037;-92
2022/05/11 23:37:00;;;;;;;;;2.75;2.00;;;;;21.74;48.11;102146.88;4984339;28;47291;-92
2022/05/11 23:39:26;;;;;;;;;2.00;2.00;;;;;21.94;47.98;102179.34;4994995;28;45526;-92
2022/05/11 23:41:51;;;;;;;;;4.00;1.25;;;;;21.85;47.89;102166.66;5010443;28;45540;-91
2022/05/11 23:44:16;;;;;;;;;2.00;2.00;;;;;21.58;48.17;102136.69;4995030;28;46869;-91
2022/05/11 23:46:42;;;;;;;;;2.25;1.00;;;;;21.86;48.20;102176.44;4997131;28;45533;-91
2022/05/11 23:49:07;;;;;;;;;2.50;2.50;;;;;22.12;48.18;102208.31;5025943;28;45499;-91
2022/05/11 23:51:33;;;;;;;;;2.00;2.00;;;;;21.47;48.08;102102.59;5028404;28;46405;-92
2022/05/11 23:53:58;;;;;;;;;1.75;1.75;;;;;22.07;47.98;102205.19;5034160;28;46960;-92
2022/05/11 23:56:24;;;;;;;;;1.00;1.00;;;;;21.65;48.13;102136.97;5010693;28;45691;-91
2022/05/11 23:58:49;;;;;;;;;1.75;1.75;;;;;21.41;48.33;102097.75;4998186;28;46106;-90
